createdAt,value
2023-02-19T00:00:38.238Z,5.15
2023-02-19T00:03:40.600Z,5.21
2023-02-19T00:06:42.577Z,5.28
2023-02-19T00:09:44.163Z,5.37
2023-02-19T00:12:45.779Z,5.44
2023-02-19T00:15:47.505Z,5.52
2023-02-19T00:18:49.278Z,5.57
2023-02-19T00:21:52.541Z,5.61
2023-02-19T00:24:54.048Z,5.66
2023-02-19T00:27:55.668Z,5.71
2023-02-19T00:31:05.246Z,5.76
2023-02-19T00:34:06.887Z,5.81
2023-02-19T00:37:08.451Z,5.83
2023-02-19T00:40:10.321Z,5.83
2023-02-19T00:43:11.880Z,5.86
2023-02-19T00:46:13.559Z,5.92
2023-02-19T00:49:17.897Z,5.98
2023-02-19T00:52:19.694Z,6.05
2023-02-19T00:55:24.400Z,6.11
2023-02-19T00:58:26.006Z,6.15
2023-02-19T01:01:27.725Z,6.18
2023-02-19T01:04:29.407Z,6.22
2023-02-19T01:07:31.250Z,6.23
2023-02-19T01:10:33.046Z,6.24
2023-02-19T01:13:35.548Z,6.26
2023-02-19T01:16:37.224Z,6.27
2023-02-19T01:19:38.973Z,6.32
2023-02-19T01:22:40.490Z,6.37
2023-02-19T01:25:42.627Z,6.37
2023-02-19T01:28:44.836Z,6.41
2023-02-19T01:31:46.519Z,6.47
2023-02-19T01:34:48.286Z,6.49
2023-02-19T01:37:49.817Z,6.48
2023-02-19T01:41:00.209Z,6.49
2023-02-19T01:44:05.310Z,6.53
2023-02-19T01:47:06.832Z,6.53
2023-02-19T01:50:08.557Z,6.54
2023-02-19T01:53:12.250Z,6.56
2023-02-19T01:56:16.022Z,6.58
2023-02-19T01:59:18.469Z,6.58
2023-02-19T02:02:20.131Z,6.60
2023-02-19T02:05:34.132Z,6.64
2023-02-19T02:08:54.448Z,6.67
2023-02-19T02:11:56.148Z,6.70
2023-02-19T02:14:57.729Z,6.73
2023-02-19T02:18:14.281Z,6.72
2023-02-19T02:21:25.160Z,6.65
2023-02-19T02:24:47.040Z,6.60
2023-02-19T02:27:59.243Z,6.52
2023-02-19T02:31:15.155Z,6.47
2023-02-19T02:34:30.789Z,6.40
2023-02-19T02:37:35.650Z,6.35
2023-02-19T02:40:40.042Z,6.33
2023-02-19T02:43:42.003Z,6.33
2023-02-19T02:46:45.353Z,6.37
2023-02-19T02:50:05.196Z,6.38
2023-02-19T02:53:36.662Z,6.38
2023-02-19T02:56:40.273Z,6.38
2023-02-19T02:59:42.843Z,6.41
2023-02-19T03:02:44.568Z,6.41
2023-02-19T03:05:52.243Z,6.37
2023-02-19T03:09:12.311Z,6.32
2023-02-19T03:12:34.146Z,6.29
2023-02-19T03:16:20.550Z,6.28
2023-02-19T03:19:23.157Z,6.27
2023-02-19T03:22:31.885Z,6.26
2023-02-19T03:25:54.850Z,6.28
2023-02-19T03:29:23.218Z,6.33
2023-02-19T03:32:33.283Z,6.38
2023-02-19T03:36:06.562Z,6.43
2023-02-19T03:39:11.806Z,6.44
2023-02-19T03:42:37.473Z,6.46
2023-02-19T03:45:49.498Z,6.49
2023-02-19T03:48:57.246Z,6.51
2023-02-19T03:52:11.153Z,6.51
2023-02-19T03:55:52.454Z,6.53
2023-02-19T03:59:09.087Z,6.56
2023-02-19T04:02:18.396Z,6.61
2023-02-19T04:05:23.287Z,6.64
2023-02-19T04:08:25.731Z,6.70
2023-02-19T04:11:33.245Z,6.76
2023-02-19T04:14:43.307Z,6.76
2023-02-19T04:17:50.581Z,6.73
2023-02-19T04:20:52.507Z,6.74
2023-02-19T04:23:54.118Z,6.75
2023-02-19T04:26:56.100Z,6.74
2023-02-19T04:29:57.728Z,6.76
2023-02-19T04:32:59.254Z,6.79
2023-02-19T04:36:00.948Z,6.81
2023-02-19T04:39:02.632Z,6.84
2023-02-19T04:42:04.572Z,6.86
2023-02-19T04:45:06.501Z,6.89
2023-02-19T04:48:09.013Z,6.90
2023-02-19T04:51:11.486Z,6.90
2023-02-19T04:54:13.191Z,6.91
2023-02-19T04:57:14.919Z,6.94
2023-02-19T05:00:16.728Z,6.97
2023-02-19T05:03:18.294Z,6.99
2023-02-19T05:06:20.058Z,6.98
2023-02-19T05:09:21.637Z,6.95
2023-02-19T05:12:23.252Z,6.94
2023-02-19T05:15:24.819Z,6.96
2023-02-19T05:18:26.636Z,7.02
2023-02-19T05:21:28.276Z,7.06
2023-02-19T05:24:31.594Z,7.07
2023-02-19T05:27:33.166Z,7.05
2023-02-19T05:30:35.510Z,7.02
2023-02-19T05:33:38.080Z,7.00
2023-02-19T05:36:39.659Z,6.99
2023-02-19T05:39:41.161Z,7.00
2023-02-19T05:42:42.705Z,7.03
2023-02-19T05:45:44.370Z,7.03
2023-02-19T05:48:47.083Z,7.03
2023-02-19T05:51:51.167Z,7.02
2023-02-19T05:54:52.777Z,6.96
2023-02-19T05:57:54.420Z,6.90
2023-02-19T06:00:56.264Z,6.80
2023-02-19T06:03:58.342Z,6.73
2023-02-19T06:06:59.983Z,6.63
2023-02-19T06:10:01.974Z,6.56
2023-02-19T06:13:03.570Z,6.51
2023-02-19T06:16:06.709Z,6.48
2023-02-19T06:19:08.362Z,6.48
2023-02-19T06:22:10.183Z,6.46
2023-02-19T06:25:12.860Z,6.44
2023-02-19T06:28:14.401Z,6.47
2023-02-19T06:31:16.762Z,6.50
2023-02-19T06:34:18.466Z,6.54
2023-02-19T06:37:19.994Z,6.61
2023-02-19T06:40:21.567Z,6.66
2023-02-19T06:43:23.152Z,6.70
2023-02-19T06:46:24.715Z,6.75
2023-02-19T06:49:26.542Z,6.78
2023-02-19T06:52:28.156Z,6.77
2023-02-19T06:55:29.748Z,6.80
2023-02-19T06:58:32.070Z,6.89
2023-02-19T07:01:34.907Z,6.95
2023-02-19T07:04:36.542Z,7.01
2023-02-19T07:07:38.117Z,7.07
2023-02-19T07:10:39.725Z,7.18
2023-02-19T07:13:41.288Z,7.27
2023-02-19T07:16:43.955Z,7.37
2023-02-19T07:19:45.542Z,7.47
2023-02-19T07:22:47.105Z,7.58
2023-02-19T07:25:48.669Z,7.68
2023-02-19T07:28:51.233Z,7.77
2023-02-19T07:31:52.924Z,7.82
2023-02-19T07:34:54.536Z,7.88
2023-02-19T07:37:56.113Z,7.95
2023-02-19T07:41:00.314Z,8.02
2023-02-19T07:44:01.883Z,8.09
2023-02-19T07:47:03.456Z,8.15
2023-02-19T07:50:05.264Z,8.21
2023-02-19T07:53:06.806Z,8.27
2023-02-19T07:56:08.648Z,8.29
2023-02-19T07:59:10.735Z,8.34
2023-02-19T08:02:35.540Z,8.43
2023-02-19T08:05:38.331Z,8.50
2023-02-19T08:08:40.287Z,8.53
2023-02-19T08:12:00.483Z,8.55
2023-02-19T08:15:02.056Z,8.62
2023-02-19T08:18:03.715Z,8.72
2023-02-19T08:21:05.471Z,8.79
2023-02-19T08:24:07.264Z,8.85
2023-02-19T08:27:08.868Z,8.91
2023-02-19T08:30:11.016Z,8.95
2023-02-19T08:33:18.003Z,9.01
2023-02-19T08:36:19.611Z,9.04
2023-02-19T08:39:21.371Z,9.01
2023-02-19T08:42:22.974Z,9.00
2023-02-19T08:45:24.590Z,8.99
2023-02-19T08:48:26.356Z,8.97
2023-02-19T08:51:27.976Z,8.95
2023-02-19T08:54:30.290Z,8.94
2023-02-19T08:57:32.170Z,8.92
2023-02-19T09:00:33.804Z,8.89
2023-02-19T09:03:35.408Z,8.89
2023-02-19T09:06:38.541Z,8.90
2023-02-19T09:09:41.663Z,8.90
2023-02-19T09:12:43.207Z,8.91
2023-02-19T09:15:44.723Z,8.95
2023-02-19T09:18:46.292Z,8.95
2023-02-19T09:21:47.843Z,8.96
2023-02-19T09:24:49.449Z,8.95
2023-02-19T09:27:54.792Z,8.89
2023-02-19T09:30:56.333Z,8.84
2023-02-19T09:33:57.943Z,8.81
2023-02-19T09:36:59.497Z,8.79
2023-02-19T09:40:01.101Z,8.77
2023-02-19T09:43:06.613Z,8.72
2023-02-19T09:46:22.569Z,8.68
2023-02-19T09:49:29.732Z,8.63
2023-02-19T09:52:39.040Z,8.62
2023-02-19T09:55:42.694Z,8.65
2023-02-19T09:58:48.822Z,8.74
2023-02-19T10:01:59.775Z,8.84
2023-02-19T10:05:03.464Z,8.93
2023-02-19T10:08:09.671Z,9.02
2023-02-19T10:11:12.662Z,9.12
2023-02-19T10:14:17.760Z,9.19
2023-02-19T10:17:39.551Z,9.28
2023-02-19T10:20:41.121Z,9.30
2023-02-19T10:23:43.392Z,9.30
2023-02-19T10:26:44.989Z,9.31
2023-02-19T10:29:48.662Z,9.37
2023-02-19T10:33:08.754Z,9.44
2023-02-19T10:36:21.079Z,9.50
2023-02-19T10:39:22.699Z,9.51
2023-02-19T10:42:25.558Z,9.51
2023-02-19T10:45:35.300Z,9.50
2023-02-19T10:48:38.763Z,9.56
2023-02-19T10:51:41.127Z,9.66
2023-02-19T10:54:44.646Z,9.72
2023-02-19T10:57:46.978Z,9.78
2023-02-19T11:00:48.707Z,9.83
2023-02-19T11:03:52.171Z,9.84
2023-02-19T11:06:53.927Z,9.89
2023-02-19T11:09:56.732Z,9.87
2023-02-19T11:13:01.012Z,9.91
2023-02-19T11:16:02.681Z,10.01
2023-02-19T11:19:04.293Z,10.12
2023-02-19T11:22:38.310Z,10.20
2023-02-19T11:25:46.027Z,10.28
2023-02-19T11:28:59.445Z,10.35
2023-02-19T11:32:24.164Z,10.39
2023-02-19T11:35:25.908Z,10.41
2023-02-19T11:38:27.590Z,10.39
2023-02-19T11:42:04.754Z,10.43
2023-02-19T11:45:27.908Z,10.56
2023-02-19T11:48:55.564Z,10.72
2023-02-19T11:52:26.103Z,10.85
2023-02-19T11:55:42.490Z,11.00
2023-02-19T11:59:02.598Z,11.03
2023-02-19T12:02:34.084Z,11.12
2023-02-19T12:05:49.719Z,11.18
2023-02-19T12:09:17.112Z,11.29
2023-02-19T12:12:40.712Z,11.46
2023-02-19T12:19:27.100Z,11.60
2023-02-19T12:22:30.762Z,11.67
2023-02-19T12:25:43.438Z,11.74
2023-02-19T12:29:11.410Z,11.81
2023-02-19T12:32:15.114Z,11.99
2023-02-19T12:35:45.466Z,12.19
2023-02-19T12:39:05.245Z,12.42
2023-02-19T12:42:15.936Z,12.60
2023-02-19T12:45:37.935Z,12.77
2023-02-19T12:48:39.422Z,13.02
2023-02-19T12:51:47.591Z,13.29
2023-02-19T12:54:53.611Z,13.54
2023-02-19T12:57:58.644Z,13.79
2023-02-19T13:01:00.268Z,13.96
2023-02-19T13:04:37.489Z,14.07
2023-02-19T13:08:14.578Z,14.24
2023-02-19T13:11:28.366Z,14.26
2023-02-19T13:14:46.136Z,14.22
2023-02-19T13:17:52.354Z,14.15
2023-02-19T13:20:55.747Z,14.12
2023-02-19T13:24:00.574Z,14.15
2023-02-19T13:27:12.807Z,14.24
2023-02-19T13:30:36.280Z,14.33
2023-02-19T13:33:53.023Z,14.44
2023-02-19T13:36:55.425Z,14.53
2023-02-19T13:39:57.431Z,14.65
2023-02-19T13:43:01.322Z,14.79
2023-02-19T13:46:06.824Z,14.91
2023-02-19T13:49:27.582Z,14.95
2023-02-19T13:52:29.138Z,14.88
2023-02-19T13:55:49.880Z,14.87
2023-02-19T13:59:23.609Z,14.99
2023-02-19T14:02:29.266Z,15.09
2023-02-19T14:06:01.047Z,15.17
2023-02-19T14:09:02.836Z,15.23
2023-02-19T14:12:18.388Z,15.28
2023-02-19T14:15:43.720Z,15.31
2023-02-19T14:18:46.613Z,15.21
2023-02-19T14:21:48.246Z,15.06
2023-02-19T14:24:49.866Z,14.97
2023-02-19T14:27:52.618Z,14.92
2023-02-19T14:31:07.894Z,14.95
2023-02-19T14:34:26.366Z,14.99
2023-02-19T14:37:27.920Z,15.04
2023-02-19T14:40:41.697Z,15.11
2023-02-19T14:43:44.781Z,15.19
2023-02-19T14:46:52.587Z,15.21
2023-02-19T14:49:58.748Z,15.24
2023-02-19T14:53:04.338Z,15.33
2023-02-19T14:56:07.643Z,15.40
2023-02-19T14:59:12.194Z,15.45
2023-02-19T15:02:17.266Z,15.46
2023-02-19T15:05:23.985Z,15.45
2023-02-19T15:08:31.932Z,15.48
2023-02-19T15:11:34.537Z,15.51
2023-02-19T15:14:36.263Z,15.52
2023-02-19T15:17:40.632Z,15.53
2023-02-19T15:20:42.685Z,15.50
2023-02-19T15:23:44.333Z,15.45
2023-02-19T15:26:51.136Z,15.38
2023-02-19T15:29:53.903Z,15.30
2023-02-19T15:32:57.473Z,15.17
2023-02-19T15:36:05.539Z,15.01
2023-02-19T15:39:07.150Z,14.89
2023-02-19T15:42:11.152Z,14.75
2023-02-19T15:45:27.839Z,14.64
2023-02-19T15:48:40.293Z,14.51
2023-02-19T15:51:47.368Z,14.40
2023-02-19T15:54:57.146Z,14.27
2023-02-19T15:58:22.226Z,14.10
2023-02-19T16:01:26.664Z,13.94
2023-02-19T16:04:28.348Z,13.81
2023-02-19T16:07:34.388Z,13.66
2023-02-19T16:10:36.282Z,13.52
2023-02-19T16:13:37.890Z,13.37
2023-02-19T16:16:40.935Z,13.21
2023-02-19T16:19:43.829Z,13.08
2023-02-19T16:22:45.733Z,12.94
2023-02-19T16:25:47.870Z,12.77
2023-02-19T16:28:53.407Z,12.63
2023-02-19T16:32:00.422Z,12.46
2023-02-19T16:35:02.076Z,12.32
2023-02-19T16:38:03.679Z,12.17
2023-02-19T16:41:11.627Z,12.04
2023-02-19T16:44:25.820Z,11.89
2023-02-19T16:47:29.704Z,11.73
2023-02-19T16:50:31.269Z,11.59
2023-02-19T16:53:33.443Z,11.47
2023-02-19T16:56:35.045Z,11.38
2023-02-19T16:59:36.970Z,11.29
2023-02-19T17:02:38.595Z,11.21
2023-02-19T17:05:40.394Z,11.10
2023-02-19T17:08:43.860Z,11.01
2023-02-19T17:11:45.476Z,10.94
2023-02-19T17:14:47.063Z,10.84
2023-02-19T17:17:49.053Z,10.73
2023-02-19T17:20:55.199Z,10.61
2023-02-19T17:23:57.107Z,10.48
2023-02-19T17:26:58.670Z,10.38
2023-02-19T17:30:00.307Z,10.29
2023-02-19T17:33:02.214Z,10.19
2023-02-19T17:36:04.199Z,10.12
2023-02-19T17:39:11.997Z,10.05
2023-02-19T17:42:13.581Z,9.99
2023-02-19T17:45:25.344Z,9.95
2023-02-19T17:48:26.955Z,9.92
2023-02-19T17:51:28.511Z,9.89
2023-02-19T17:54:30.154Z,9.88
2023-02-19T17:57:33.815Z,9.86
2023-02-19T18:00:36.617Z,9.78
2023-02-19T18:03:38.661Z,9.73
2023-02-19T18:06:40.260Z,9.67
2023-02-19T18:09:41.890Z,9.59
2023-02-19T18:12:43.897Z,9.50
2023-02-19T18:15:45.458Z,9.38
2023-02-19T18:18:47.023Z,9.24
2023-02-19T18:21:48.783Z,9.11
2023-02-19T18:24:54.108Z,8.98
2023-02-19T18:27:55.718Z,8.86
2023-02-19T18:30:57.377Z,8.79
2023-02-19T18:33:59.151Z,8.75
2023-02-19T18:37:00.850Z,8.74
2023-02-19T18:40:03.925Z,8.71
2023-02-19T18:43:05.502Z,8.65
2023-02-19T18:46:08.875Z,8.55
2023-02-19T18:49:10.486Z,8.49
2023-02-19T18:52:12.414Z,8.45
2023-02-19T18:55:14.041Z,8.39
2023-02-19T18:58:15.739Z,8.35
2023-02-19T19:01:17.345Z,8.33
2023-02-19T19:04:19.068Z,8.34
2023-02-19T19:07:21.199Z,8.34
2023-02-19T19:10:23.193Z,8.33
2023-02-19T19:13:25.543Z,8.32
2023-02-19T19:16:28.572Z,8.25
2023-02-19T19:19:30.221Z,8.18
2023-02-19T19:22:31.802Z,8.15
2023-02-19T19:25:33.319Z,8.13
2023-02-19T19:28:34.849Z,8.12
2023-02-19T19:31:37.013Z,8.11
2023-02-19T19:34:38.572Z,8.12
2023-02-19T19:37:40.132Z,8.15
2023-02-19T19:40:42.431Z,8.17
2023-02-19T19:43:44.098Z,8.21
2023-02-19T19:46:45.923Z,8.28
2023-02-19T19:49:47.519Z,8.35
2023-02-19T19:52:49.045Z,8.43
2023-02-19T19:55:50.661Z,8.50
2023-02-19T19:58:52.247Z,8.53
2023-02-19T20:01:57.126Z,8.58
2023-02-19T20:04:58.799Z,8.64
2023-02-19T20:08:00.428Z,8.68
2023-02-19T20:11:03.187Z,8.71
2023-02-19T20:14:05.347Z,8.74
2023-02-19T20:17:09.509Z,8.76
2023-02-19T20:20:11.618Z,8.77
2023-02-19T20:23:13.227Z,8.78
2023-02-19T20:26:24.518Z,8.80
2023-02-19T20:29:28.743Z,8.83
2023-02-19T20:32:30.342Z,8.87
2023-02-19T20:35:32.478Z,8.91
2023-02-19T20:38:34.202Z,8.94
2023-02-19T20:41:35.800Z,8.93
2023-02-19T20:44:37.388Z,8.98
2023-02-19T20:47:39.865Z,9.02
2023-02-19T20:50:41.460Z,9.05
2023-02-19T20:53:43.338Z,9.09
2023-02-19T20:56:45.852Z,9.07
2023-02-19T20:59:47.472Z,9.05
2023-02-19T21:02:49.104Z,9.06
2023-02-19T21:05:50.741Z,9.07
2023-02-19T21:08:52.301Z,9.08
2023-02-19T21:11:53.875Z,9.11
2023-02-19T21:14:55.545Z,9.12
2023-02-19T21:17:57.070Z,9.15
2023-02-19T21:20:58.819Z,9.16
2023-02-19T21:24:00.515Z,9.14
2023-02-19T21:27:02.115Z,9.09
2023-02-19T21:30:05.042Z,9.06
2023-02-19T21:33:06.685Z,9.04
2023-02-19T21:36:09.060Z,9.02
2023-02-19T21:39:13.103Z,9.04
2023-02-19T21:42:14.768Z,9.06
2023-02-19T21:45:16.427Z,9.08
2023-02-19T21:48:18.116Z,9.12
2023-02-19T21:51:20.763Z,9.15
2023-02-19T21:54:27.064Z,9.16
2023-02-19T21:57:28.759Z,9.17
2023-02-19T22:00:31.397Z,9.19
2023-02-19T22:03:32.957Z,9.20
2023-02-19T22:06:34.635Z,9.23
2023-02-19T22:09:36.173Z,9.24
2023-02-19T22:12:37.733Z,9.24
2023-02-19T22:15:39.274Z,9.21
2023-02-19T22:18:50.895Z,9.19
2023-02-19T22:21:52.501Z,9.21
2023-02-19T22:24:54.066Z,9.20
2023-02-19T22:27:55.716Z,9.20
2023-02-19T22:30:57.234Z,9.20
2023-02-19T22:33:58.828Z,9.21
2023-02-19T22:37:00.412Z,9.23
2023-02-19T22:40:02.015Z,9.23
2023-02-19T22:43:03.548Z,9.26
2023-02-19T22:46:10.316Z,9.28
2023-02-19T22:49:11.980Z,9.27
2023-02-19T22:52:13.793Z,9.25
2023-02-19T22:55:16.611Z,9.20
2023-02-19T22:58:18.128Z,9.17
2023-02-19T23:01:20.495Z,9.15
2023-02-19T23:04:24.895Z,9.13
2023-02-19T23:07:26.507Z,9.15
2023-02-19T23:10:28.425Z,9.19
2023-02-19T23:13:29.956Z,9.24
2023-02-19T23:16:35.896Z,9.27
2023-02-19T23:19:38.021Z,9.28
2023-02-19T23:22:40.070Z,9.27
2023-02-19T23:25:41.664Z,9.24
2023-02-19T23:28:44.130Z,9.24
2023-02-19T23:31:46.277Z,9.23
2023-02-19T23:34:48.355Z,9.24
2023-02-19T23:37:49.933Z,9.22
2023-02-19T23:40:51.521Z,9.20
2023-02-19T23:43:53.394Z,9.21
2023-02-19T23:46:55.092Z,9.20
2023-02-19T23:49:56.630Z,9.20
2023-02-19T23:52:59.287Z,9.20
2023-02-19T23:56:00.925Z,9.18
2023-02-19T23:59:02.566Z,9.17
